Time;durP1;ratioP1;P1;durP2;ratioP2;P2;SDS_P1;SDS_P2;PMS_P1;PMS_P2;Temp;Humidity;BMP_temperature;BMP_pressure;BME280_temperature;BME280_humidity;BME280_pressure;Samples;Min_cycle;Max_cycle;Signal;HPM_P1;HPM_P2
2022/08/09 00:03:20;;;;;;;7.25;4.22;;;;;;;16.80;79.02;101122.77;2848504;82;20983;-88
2022/08/09 00:07:22;;;;;;;9.75;4.58;;;;;;;16.78;79.34;101127.92;2828704;82;21036;-88
2022/08/09 00:11:23;;;;;;;6.33;5.72;;;;;;;16.69;79.48;101119.73;2844516;82;20995;-88
2022/08/09 00:15:25;;;;;;;4.92;4.42;;;;;;;16.67;79.66;101119.03;2880806;82;20983;-88
2022/08/09 00:19:26;;;;;;;4.90;3.90;;;;;;;16.63;80.13;101131.06;2923493;80;21064;-88
2022/08/09 00:23:28;;;;;;;5.22;4.72;;;;;;;16.35;81.59;101130.98;2908805;80;21046;-87
2022/08/09 00:27:29;;;;;;;5.35;4.45;;;;;;;16.31;81.76;101129.58;2917425;80;21533;-87
2022/08/09 00:31:30;;;;;;;5.97;4.87;;;;;;;16.36;81.92;101133.16;2905445;80;21074;-87
2022/08/09 00:35:32;;;;;;;5.53;4.72;;;;;;;16.33;82.27;101137.47;2911746;80;21020;-88
2022/08/09 00:39:34;;;;;;;6.37;5.42;;;;;;;16.15;83.07;101137.36;2885081;81;21019;-88
2022/08/09 00:43:36;;;;;;;10.20;5.12;;;;;;;15.88;82.37;101136.16;2907328;80;21025;-86
2022/08/09 00:47:38;;;;;;;5.40;4.90;;;;;;;15.88;82.72;101136.16;2907512;80;21021;-88
2022/08/09 00:51:39;;;;;;;5.65;4.55;;;;;;;15.93;82.95;101140.16;2882205;80;21034;-88
2022/08/09 00:55:40;;;;;;;4.87;4.22;;;;;;;16.00;82.70;101147.16;2934410;80;20987;-88
2022/08/09 00:59:43;;;;;;;6.70;5.80;;;;;;;16.09;82.72;101150.84;2905644;80;21546;-88
2022/08/09 01:04:05;;;;;;;8.03;6.55;;;;;;;16.04;82.59;101151.25;2859201;81;21511;-88
2022/08/09 01:08:29;;;;;;;7.05;5.85;;;;;;;15.97;84.27;101152.81;2891290;81;21023;-85
2022/08/09 01:12:50;;;;;;;9.48;6.35;;;;;;;15.90;86.27;101152.52;2880185;80;21061;-87
2022/08/09 01:16:57;;;;;;;8.83;5.65;;;;;;;15.84;87.79;101151.20;2886332;80;21058;-88
2022/08/09 01:21:39;;;;;;;7.92;6.15;;;;;;;15.88;89.44;101148.23;2908916;80;21063;-89
2022/08/09 01:26:03;;;;;;;8.73;6.15;;;;;;;15.92;87.87;101138.47;2885609;81;21011;-88
2022/08/09 01:30:07;;;;;;;7.97;5.62;;;;;;;15.95;88.83;101135.50;2898522;81;21069;-87
2022/08/09 01:34:14;;;;;;;5.95;4.83;;;;;;;15.97;88.99;101135.37;2885832;82;21024;-87
2022/08/09 01:38:23;;;;;;;6.47;5.87;;;;;;;15.93;90.07;101134.80;2902285;81;20986;-87
2022/08/09 01:42:26;;;;;;;12.07;5.08;;;;;;;15.90;89.89;101134.22;2884741;81;21023;-88
2022/08/09 01:46:38;;;;;;;5.28;4.53;;;;;;;15.92;90.78;101145.17;2930201;80;21033;-88
2022/08/09 01:50:42;;;;;;;4.70;4.20;;;;;;;15.95;90.53;101142.20;2874043;82;21050;-87
2022/08/09 01:54:48;;;;;;;6.58;5.00;;;;;;;16.05;89.82;101158.31;2888687;80;21633;-87
2022/08/09 01:58:51;;;;;;;6.70;5.65;;;;;;;16.05;93.37;101169.55;2889623;80;21037;-88
2022/08/09 02:02:53;;;;;;;7.33;4.80;;;;;;;16.11;90.99;101168.51;2931822;80;21616;-87
2022/08/09 02:07:07;;;;;;;5.60;4.62;;;;;;;16.22;90.36;101168.00;2844675;82;21063;-87
2022/08/09 02:11:10;;;;;;;7.72;6.85;;;;;;;16.25;89.84;101171.73;2867178;82;21011;-88
2022/08/09 02:15:15;;;;;;;6.25;4.95;;;;;;;16.35;89.41;101173.94;2879984;82;21019;-87
2022/08/09 02:19:17;;;;;;;5.37;4.63;;;;;;;16.47;89.26;101165.72;2895493;82;21035;-86
2022/08/09 02:23:45;;;;;;;7.25;6.05;;;;;;;16.44;90.68;101171.38;2867245;82;21075;-88
2022/08/09 02:28:00;;;;;;;8.98;5.45;;;;;;;16.36;91.55;101175.63;2862083;82;21031;-87
2022/08/09 02:32:05;;;;;;;7.17;6.33;;;;;;;16.34;90.21;101174.06;2808548;84;21063;-88
2022/08/09 02:36:15;;;;;;;47.60;13.07;;;;;;;16.35;90.03;101167.23;2805176;83;21100;-87
2022/08/09 02:40:20;;;;;;;13.53;8.93;;;;;;;16.39;90.04;101157.89;2807580;82;21065;-86
2022/08/09 02:44:25;;;;;;;18.25;7.50;;;;;;;16.46;91.02;101162.67;2819222;82;21613;-87
2022/08/09 02:48:30;;;;;;;8.55;5.70;;;;;;;16.53;91.33;101161.13;2822995;82;21024;-83
2022/08/09 02:52:42;;;;;;;6.27;5.77;;;;;;;16.53;92.10;101162.48;2852685;82;21080;-87
2022/08/09 02:56:47;;;;;;;7.40;5.35;;;;;;;16.42;92.84;101163.48;2849543;81;21079;-88
2022/08/09 03:00:49;;;;;;;7.15;4.95;;;;;;;16.44;91.47;101166.00;2868084;81;21023;-88
2022/08/09 03:04:52;;;;;;;9.88;6.05;;;;;;;16.42;91.77;101171.02;2872997;81;21103;-87
2022/08/09 03:08:55;;;;;;;5.78;4.58;;;;;;;16.49;91.07;101171.78;2849698;82;21047;-87
2022/08/09 03:12:57;;;;;;;11.55;6.47;;;;;;;16.59;90.47;101169.95;2865176;81;21025;-88
2022/08/09 03:17:00;;;;;;;6.75;5.28;;;;;;;16.65;90.37;101171.22;2877208;81;21020;-88
2022/08/09 03:21:02;;;;;;;11.28;6.97;;;;;;;16.67;90.53;101168.72;2855088;81;21666;-89
2022/08/09 03:25:04;;;;;;;5.97;5.08;;;;;;;16.72;90.20;101163.44;2887649;81;21053;-86
2022/08/09 03:29:06;;;;;;;11.85;5.25;;;;;;;16.66;90.79;101174.26;2882478;82;21076;-87
2022/08/09 03:33:08;;;;;;;9.75;6.33;;;;;;;16.69;91.16;101173.96;2898556;81;21055;-84
2022/08/09 03:37:09;;;;;;;6.58;5.03;;;;;;;16.72;91.26;101166.13;2900540;81;21077;-89
2022/08/09 03:41:13;;;;;;;7.47;5.55;;;;;;;16.81;90.93;101175.98;2902930;81;21030;-88
2022/08/09 03:45:14;;;;;;;5.55;5.03;;;;;;;16.81;90.00;101170.13;2889073;80;22106;-88
2022/08/09 03:49:18;;;;;;;6.45;5.83;;;;;;;16.79;89.66;101172.59;2860977;82;21066;-90
2022/08/09 03:53:20;;;;;;;8.13;5.75;;;;;;;16.75;89.21;101173.38;2912067;81;21036;-89
2022/08/09 03:57:23;;;;;;;6.87;5.37;;;;;;;16.74;88.99;101172.20;2899377;82;21059;-87
2022/08/09 04:01:25;;;;;;;5.90;5.40;;;;;;;16.77;89.29;101175.93;2907297;81;21070;-90
2022/08/09 04:05:27;;;;;;;10.08;7.15;;;;;;;16.86;89.10;101177.73;2892840;81;21027;-84
2022/08/09 04:09:28;;;;;;;6.50;5.22;;;;;;;16.96;88.59;101175.87;2885668;81;21555;-83
2022/08/09 04:13:30;;;;;;;25.00;6.37;;;;;;;16.94;88.13;101177.00;2904694;82;21039;-86
2022/08/09 04:17:31;;;;;;;9.43;5.42;;;;;;;16.74;88.02;101172.20;2851149;82;20981;-88
2022/08/09 04:21:32;;;;;;;6.17;5.58;;;;;;;16.63;87.36;101178.06;2867183;81;21090;-88
2022/08/09 04:25:35;;;;;;;7.25;6.20;;;;;;;16.50;87.16;101175.69;2905240;82;21058;-88
2022/08/09 04:29:36;;;;;;;13.03;6.45;;;;;;;16.50;87.91;101174.34;2901562;82;21065;-89
2022/08/09 04:33:39;;;;;;;9.83;5.60;;;;;;;16.42;89.39;101188.48;2904754;82;21544;-88
2022/08/09 04:37:40;;;;;;;19.90;6.58;;;;;;;16.45;90.31;101186.50;2902527;80;21077;-88
2022/08/09 04:41:42;;;;;;;9.38;6.35;;;;;;;16.58;88.86;101188.88;2891527;82;21033;-87
2022/08/09 04:45:45;;;;;;;21.07;7.62;;;;;;;16.68;89.53;101188.39;2899304;82;20992;-87
2022/08/09 04:49:46;;;;;;;11.57;6.22;;;;;;;16.88;90.74;101185.14;2901728;82;21054;-90
2022/08/09 04:53:48;;;;;;;14.63;7.03;;;;;;;17.08;90.12;101189.16;2861765;80;21026;-90
2022/08/09 04:57:51;;;;;;;15.48;8.78;;;;;;;17.25;88.73;101192.42;2900603;81;21044;-90
2022/08/09 05:01:53;;;;;;;14.15;8.15;;;;;;;17.40;87.88;101192.80;2899483;81;21015;-89
2022/08/09 05:05:55;;;;;;;16.95;9.85;;;;;;;17.56;87.54;101194.84;2868706;82;21089;-89
2022/08/09 05:09:56;;;;;;;14.53;8.85;;;;;;;17.71;86.82;101198.38;2889840;82;21099;-90
2022/08/09 05:13:58;;;;;;;13.90;7.67;;;;;;;17.79;86.20;101198.45;2896927;81;21081;-89
2022/08/09 05:17:59;;;;;;;11.73;8.50;;;;;;;17.89;86.08;101197.56;2892048;80;21027;-89
2022/08/09 05:22:00;;;;;;;23.83;11.20;;;;;;;18.02;86.67;101200.74;2904151;82;21030;-89
2022/08/09 05:26:02;;;;;;;22.10;11.55;;;;;;;18.11;86.14;101206.58;2863163;81;21614;-88
2022/08/09 05:31:05;;;;;;;17.52;10.60;;;;;;;18.31;82.66;101206.91;2881712;82;21047;-88
2022/08/09 05:35:07;;;;;;;20.17;10.90;;;;;;;18.44;82.23;101214.59;2845171;83;21054;-88
2022/08/09 05:39:10;;;;;;;31.20;14.28;;;;;;;18.43;81.54;101216.45;2781367;83;21344;-89
2022/08/09 05:43:11;;;;;;;49.93;17.70;;;;;;;18.45;81.84;101221.67;2841366;82;21072;-89
2022/08/09 05:47:12;;;;;;;23.67;12.33;;;;;;;18.66;82.24;101222.70;2818009;83;21523;-89
2022/08/09 05:51:14;;;;;;;27.65;13.55;;;;;;;18.91;81.85;101229.13;2820119;83;21087;-86
2022/08/09 05:55:15;;;;;;;19.12;15.15;;;;;;;19.08;80.75;101224.70;2722035;85;21069;-88
2022/08/09 05:59:18;;;;;;;25.88;14.68;;;;;;;19.27;80.16;101222.80;2802096;83;21008;-89
2022/08/09 06:03:20;;;;;;;18.20;15.00;;;;;;;19.36;79.81;101224.55;2823817;83;21051;-89
2022/08/09 06:07:22;;;;;;;27.55;14.43;;;;;;;19.50;78.92;101229.83;2834301;83;21561;-89
2022/08/09 06:11:23;;;;;;;19.52;16.52;;;;;;;19.29;76.20;101231.56;2829150;83;21071;-89
2022/08/09 06:15:25;;;;;;;21.00;17.20;;;;;;;19.18;76.05;101228.64;2836128;83;21108;-89
2022/08/09 06:19:26;;;;;;;25.50;15.68;;;;;;;19.29;77.28;101233.44;2837188;83;21047;-88
2022/08/09 06:23:32;;;;;;;20.23;15.58;;;;;;;19.44;75.69;101232.32;2840130;83;21057;-86
2022/08/09 06:27:33;;;;;;;23.98;17.42;;;;;;;19.39;73.20;101231.45;2869990;82;21073;-89
2022/08/09 06:31:36;;;;;;;34.70;18.05;;;;;;;19.46;74.14;101231.16;2900938;82;20991;-88
2022/08/09 06:35:37;;;;;;;23.73;15.58;;;;;;;19.72;73.67;101232.95;2899403;80;21528;-89
2022/08/09 06:39:39;;;;;;;20.92;14.98;;;;;;;19.92;73.69;101232.70;2851925;82;21018;-90
2022/08/09 06:43:40;;;;;;;18.37;13.98;;;;;;;20.16;71.76;101232.41;2885821;81;20968;-90
2022/08/09 06:47:41;;;;;;;25.57;13.88;;;;;;;20.39;70.41;101232.10;2833033;83;21406;-89
2022/08/09 06:51:42;;;;;;;20.97;13.38;;;;;;;20.62;70.77;101242.23;2852036;83;21069;-89
2022/08/09 06:55:44;;;;;;;18.27;11.55;;;;;;;20.87;70.04;101240.07;2935140;80;21018;-89
2022/08/09 06:59:45;;;;;;;14.98;11.35;;;;;;;21.09;68.38;101237.17;2888132;80;21006;-90
2022/08/09 07:03:46;;;;;;;15.85;11.93;;;;;;;21.33;69.07;101247.59;2935295;80;21049;-89
2022/08/09 07:08:23;;;;;;;19.05;12.35;;;;;;;21.54;68.92;101249.20;2916060;80;21090;-83
2022/08/09 07:12:24;;;;;;;;;;;;;;;21.79;67.17;101253.19;2873123;82;21093;-89
2022/08/09 07:16:25;;;;;;;14.47;9.68;;;;;;;21.97;67.49;101254.30;2848777;83;20145;-88
2022/08/09 07:20:27;;;;;;;17.12;11.22;;;;;;;22.06;66.53;101265.07;2869247;82;21334;-88
2022/08/09 07:24:29;;;;;;;21.48;12.20;;;;;;;22.00;67.55;101265.80;2836360;82;21109;-88
2022/08/09 07:28:32;;;;;;;15.48;13.38;;;;;;;22.10;68.25;101271.32;2848680;82;21034;-89
2022/08/09 07:32:33;;;;;;;22.50;15.75;;;;;;;22.26;66.45;101272.25;2877139;81;21571;-90
2022/08/09 07:36:35;;;;;;;22.58;15.15;;;;;;;22.39;68.21;101272.47;2807948;83;20997;-90
2022/08/09 07:40:36;;;;;;;14.90;8.05;;;;;;;22.57;67.30;101274.08;2858568;81;21605;-90
2022/08/09 07:44:39;;;;;;;9.28;7.15;;;;;;;23.02;66.34;101272.84;2743000;84;21011;-89
2022/08/09 07:48:40;;;;;;;9.28;6.37;;;;;;;23.30;64.16;101280.91;2831001;83;21065;-89
2022/08/09 07:52:41;;;;;;;8.33;5.30;;;;;;;23.60;64.58;101280.40;2830431;82;21019;-90
2022/08/09 07:56:43;;;;;;;4.83;4.17;;;;;;;23.96;62.66;101265.16;2826985;84;21072;-90
2022/08/09 08:00:44;;;;;;;5.83;3.65;;;;;;;24.31;60.84;101269.45;2823869;84;20992;-89
2022/08/09 08:04:47;;;;;;;14.60;5.75;;;;;;;24.57;62.27;101257.67;2808862;84;21676;-89
2022/08/09 08:08:48;;;;;;;8.25;3.83;;;;;;;24.77;62.30;101265.52;2823497;84;21550;-90
2022/08/09 08:12:50;;;;;;;11.43;4.42;;;;;;;25.00;60.01;101260.89;2834317;82;20972;-85
2022/08/09 08:16:51;;;;;;;5.92;4.40;;;;;;;25.10;58.68;101262.72;2819380;83;21087;-90
2022/08/09 08:20:52;;;;;;;3.70;3.27;;;;;;;25.05;58.54;101265.20;2810184;84;21051;-89
2022/08/09 08:24:56;;;;;;;4.87;3.52;;;;;;;24.94;58.70;101261.97;2859032;82;21027;-90
2022/08/09 08:28:59;;;;;;;5.58;3.75;;;;;;;24.93;57.61;101268.99;2878069;81;21020;-88
2022/08/09 08:33:00;;;;;;;4.95;3.35;;;;;;;25.17;58.26;101266.34;2853446;81;20999;-90
2022/08/09 08:37:02;;;;;;;7.40;3.27;;;;;;;25.50;57.36;101271.70;2863328;83;21007;-89
2022/08/09 08:41:04;;;;;;;8.10;3.55;;;;;;;25.78;55.91;101268.89;2886115;82;21027;-89
2022/08/09 08:45:07;;;;;;;5.05;3.70;;;;;;;26.18;55.84;101266.84;2850174;82;21099;-89
2022/08/09 08:49:11;;;;;;;4.08;3.02;;;;;;;26.55;55.17;101269.73;2895177;81;21022;-89
2022/08/09 08:53:14;;;;;;;7.97;3.55;;;;;;;26.73;55.96;101267.22;2859640;82;21010;-90
2022/08/09 08:57:15;;;;;;;3.27;1.70;;;;;;;27.02;55.36;101261.56;2884930;81;21020;-89
2022/08/09 09:01:17;;;;;;;3.40;2.12;;;;;;;27.37;52.70;101261.30;2866357;82;21355;-90
2022/08/09 09:05:22;;;;;;;3.95;2.20;;;;;;;27.59;51.74;101263.77;2836947;82;20989;-86
2022/08/09 09:09:26;;;;;;;3.40;1.52;;;;;;;27.81;49.60;101264.32;2867613;82;20999;-87
2022/08/09 09:13:29;;;;;;;2.85;1.75;;;;;;;27.95;50.29;101259.63;2860201;81;21083;-84
2022/08/09 09:17:30;;;;;;;2.77;1.07;;;;;;;28.16;48.40;101263.11;2831360;82;21035;-88
2022/08/09 09:21:31;;;;;;;7.37;1.77;;;;;;;28.20;47.66;101254.25;2819669;82;21095;-87
2022/08/09 09:25:42;;;;;;;3.70;1.22;;;;;;;28.15;48.98;101258.67;2860894;82;21003;-88
2022/08/09 09:29:43;;;;;;;6.62;2.42;;;;;;;28.31;47.58;101251.34;2817595;82;21044;-88
2022/08/09 09:33:45;;;;;;;3.25;1.22;;;;;;;28.43;48.95;101255.56;2852291;82;21011;-87
2022/08/09 09:37:46;;;;;;;1.42;0.78;;;;;;;28.30;46.38;101256.50;2896785;81;21050;-86
2022/08/09 09:41:49;;;;;;;1.70;1.10;;;;;;;28.30;46.38;101256.50;2841523;82;21011;-84
2022/08/09 09:45:52;;;;;;;2.58;1.35;;;;;;;28.28;45.41;101255.03;2843818;83;21036;-86
2022/08/09 09:49:56;;;;;;;1.22;1.10;;;;;;;28.28;45.78;101258.59;2861587;82;21031;-87
2022/08/09 09:54:07;;;;;;;2.50;2.05;;;;;;;28.25;46.19;101252.20;2809120;83;21012;-85
2022/08/09 09:58:11;;;;;;;2.50;1.57;;;;;;;28.31;44.86;101258.17;2861879;82;21037;-87
2022/08/09 10:02:13;;;;;;;2.98;0.88;;;;;;;28.29;45.59;101243.03;2865831;82;21054;-88
2022/08/09 10:06:16;;;;;;;2.15;1.47;;;;;;;28.23;45.90;101244.75;2834367;83;20972;-88
2022/08/09 10:10:28;;;;;;;1.47;0.90;;;;;;;28.32;45.50;101243.95;2871603;82;20990;-86
2022/08/09 10:14:30;;;;;;;2.02;1.77;;;;;;;28.39;45.55;101241.17;2831097;82;21008;-84
2022/08/09 10:18:31;;;;;;;4.20;1.60;;;;;;;28.39;45.55;101241.17;2826621;83;20989;-88
2022/08/09 10:22:36;;;;;;;2.30;1.10;;;;;;;28.29;43.11;101198.72;2804670;84;20991;-88
2022/08/09 10:26:39;;;;;;;2.33;1.35;;;;;;;28.32;44.00;101239.33;2877067;81;21042;-86
2022/08/09 10:30:41;;;;;;;2.30;1.35;;;;;;;28.34;44.60;101227.64;2834951;83;21043;-87
2022/08/09 10:34:42;;;;;;;5.12;1.32;;;;;;;28.24;45.14;101210.05;2839661;82;21011;-83
2022/08/09 10:38:46;;;;;;;3.20;1.02;;;;;;;28.24;45.14;101210.05;2844339;83;21046;-87
2022/08/09 10:42:48;;;;;;;4.05;1.20;;;;;;;28.35;44.68;101210.16;2849978;82;21019;-85
2022/08/09 10:47:00;;;;;;;3.58;0.90;;;;;;;28.35;43.92;101208.80;2841833;82;20968;-88
2022/08/09 10:51:31;;;;;;;3.02;1.20;;;;;;;28.39;44.80;101205.06;2831089;83;21043;-87
2022/08/09 10:55:34;;;;;;;2.40;1.05;;;;;;;28.56;45.12;101199.89;2777794;84;21401;-86
2022/08/09 10:59:37;;;;;;;2.77;1.27;;;;;;;28.70;45.23;101192.38;2774854;84;21123;-88
2022/08/09 11:03:44;;;;;;;11.20;1.30;;;;;;;28.65;44.91;101199.07;2762505;84;21088;-87
2022/08/09 11:07:45;;;;;;;5.03;0.70;;;;;;;28.76;44.24;101185.17;2775270;84;21072;-86
2022/08/09 11:11:59;;;;;;;3.52;1.20;;;;;;;28.81;43.87;101185.91;2740711;84;21349;-87
2022/08/09 11:16:30;;;;;;;1.98;1.15;;;;;;;28.83;43.76;101190.07;2766637;84;21711;-87
2022/08/09 11:20:46;;;;;;;3.47;1.37;;;;;;;29.03;43.23;101184.91;2659633;87;20996;-87
2022/08/09 11:25:07;;;;;;;9.43;1.50;;;;;;;29.02;42.16;101179.14;2638690;88;21405;-86
2022/08/09 11:29:47;;;;;;;3.40;1.10;;;;;;;28.87;42.46;101189.92;2644529;88;21088;-87
2022/08/09 11:33:52;;;;;;;2.72;1.12;;;;;;;28.87;42.46;101189.92;2675691;88;21054;-87
2022/08/09 11:37:56;;;;;;;;;;;;;;;28.99;42.30;101178.23;2708474;86;21043;-85
2022/08/09 11:42:01;;;;;;;2.42;1.10;;;;;;;28.99;43.49;101181.82;2697706;86;20126;-86
2022/08/09 11:46:05;;;;;;;2.77;1.17;;;;;;;28.79;43.24;101185.61;2706368;87;21103;-84
2022/08/09 11:50:07;;;;;;;2.20;0.83;;;;;;;28.65;42.87;101180.73;2698866;86;21080;-87
2022/08/09 11:54:18;;;;;;;1.65;1.07;;;;;;;28.65;42.87;101186.21;2728116;85;21071;-88
2022/08/09 11:58:29;;;;;;;1.50;1.17;;;;;;;28.59;42.83;101187.12;2915756;80;20967;-88
2022/08/09 12:02:31;;;;;;;2.10;1.27;;;;;;;28.58;44.47;101181.34;2838525;82;20968;-88
2022/08/09 12:06:34;;;;;;;3.47;1.00;;;;;;;28.77;43.82;101180.00;2886122;80;21560;-86
2022/08/09 12:10:42;;;;;;;2.20;1.35;;;;;;;28.98;42.47;101184.22;2886131;82;20995;-87
2022/08/09 12:14:44;;;;;;;3.72;1.22;;;;;;;29.10;42.67;101185.70;2871792;80;21047;-88
2022/08/09 12:18:49;;;;;;;2.58;1.30;;;;;;;29.11;42.78;101175.56;2886122;82;21034;-87
2022/08/09 12:22:58;;;;;;;2.83;1.37;;;;;;;29.10;43.03;101167.89;2853952;82;21062;-87
2022/08/09 12:26:59;;;;;;;6.28;1.82;;;;;;;29.03;42.70;101172.59;2899412;80;21040;-87
2022/08/09 12:31:01;;;;;;;3.37;1.02;;;;;;;28.88;43.06;101168.32;2855766;82;20988;-88
2022/08/09 12:35:07;;;;;;;3.90;1.02;;;;;;;28.84;43.12;101169.84;2920704;81;21048;-87
2022/08/09 12:39:13;;;;;;;3.25;1.92;;;;;;;28.74;43.00;101172.25;2898948;82;21011;-87
2022/08/09 12:43:18;;;;;;;0.90;0.88;;;;;;;28.42;43.59;101176.43;2899810;82;21511;-85
2022/08/09 12:47:21;;;;;;;4.03;1.35;;;;;;;27.86;44.39;101149.69;2903440;80;21048;-86
2022/08/09 12:51:23;;;;;;;1.40;1.05;;;;;;;27.82;44.42;101168.11;2906959;81;21004;-87
2022/08/09 12:55:31;;;;;;;4.65;1.02;;;;;;;27.82;44.42;101168.11;2883207;82;21058;-87
2022/08/09 12:59:32;;;;;;;1.27;1.00;;;;;;;27.67;44.88;101176.07;2921416;81;21056;-88
2022/08/09 13:03:35;;;;;;;2.83;1.77;;;;;;;27.48;44.76;101177.28;2890568;82;21020;-87
2022/08/09 13:07:36;;;;;;;3.60;1.47;;;;;;;27.36;46.30;101174.94;2907544;82;21067;-86
2022/08/09 13:11:45;;;;;;;6.92;1.10;;;;;;;27.20;45.64;101177.09;2879918;81;21543;-84
2022/08/09 13:15:53;;;;;;;3.77;1.50;;;;;;;27.09;46.08;101179.11;2865251;81;21031;-86
2022/08/09 13:19:57;;;;;;;3.80;1.62;;;;;;;27.07;46.81;101176.61;2904474;81;21020;-88
2022/08/09 13:24:01;;;;;;;2.02;1.70;;;;;;;27.07;46.28;101173.03;2903142;80;21039;-89
2022/08/09 13:28:15;;;;;;;2.15;1.17;;;;;;;27.05;46.23;101174.62;2858025;81;21106;-88
2022/08/09 13:32:17;;;;;;;1.65;1.35;;;;;;;27.37;46.13;101169.79;2906377;80;29928;-84
2022/08/09 13:36:27;;;;;;;4.33;2.40;;;;;;;27.75;45.93;101159.95;2864593;82;21322;-86
2022/08/09 13:40:29;;;;;;;2.52;1.35;;;;;;;28.07;44.78;101153.12;2908590;81;21494;-89
2022/08/09 13:44:32;;;;;;;4.42;1.70;;;;;;;28.33;43.50;101152.10;2884395;82;21055;-86
2022/08/09 13:48:33;;;;;;;3.37;1.75;;;;;;;28.43;43.02;101148.01;2900050;80;21605;-85
2022/08/09 13:52:35;;;;;;;3.75;2.37;;;;;;;28.54;43.27;101152.76;2844846;80;21641;-85
2022/08/09 13:56:36;;;;;;;1.52;1.42;;;;;;;28.99;43.20;101153.58;2901921;80;21016;-85
2022/08/09 14:00:38;;;;;;;2.02;1.20;;;;;;;28.99;43.20;101153.58;2894932;80;20967;-85
2022/08/09 14:04:40;;;;;;;12.90;2.08;;;;;;;29.14;43.06;101144.45;2850321;82;20959;-83
2022/08/09 14:08:42;;;;;;;3.02;1.32;;;;;;;29.17;42.23;101155.47;2896914;82;21043;-85
2022/08/09 14:12:43;;;;;;;4.50;1.82;;;;;;;29.24;41.47;101149.91;2907246;80;21041;-86
2022/08/09 14:16:45;;;;;;;1.45;1.35;;;;;;;29.11;44.21;101149.03;2889447;81;21054;-86
2022/08/09 14:20:47;;;;;;;5.80;1.55;;;;;;;28.89;43.59;101133.06;2908927;80;21022;-85
2022/08/09 14:24:48;;;;;;;4.50;2.15;;;;;;;28.89;45.53;101148.13;2892977;81;21030;-85
2022/08/09 14:28:49;;;;;;;3.15;1.52;;;;;;;28.84;45.24;101148.49;2888321;81;21307;-86
2022/08/09 14:32:51;;;;;;;2.58;1.80;;;;;;;28.93;43.52;101143.86;2889567;81;21023;-85
2022/08/09 14:36:52;;;;;;;2.80;1.70;;;;;;;28.93;43.52;101143.86;2872631;82;21010;-86
2022/08/09 14:40:53;;;;;;;2.27;2.08;;;;;;;29.00;44.25;101138.83;2884413;81;21039;-83
2022/08/09 14:44:55;;;;;;;2.50;1.95;;;;;;;29.06;43.81;101143.38;2866019;82;21001;-85
2022/08/09 14:48:56;;;;;;;1.55;1.45;;;;;;;29.06;43.81;101143.38;2833595;82;21020;-85
2022/08/09 14:53:00;;;;;;;1.95;1.60;;;;;;;29.25;43.20;101144.73;2858806;81;21002;-84
2022/08/09 14:57:02;;;;;;;2.17;1.57;;;;;;;29.43;42.31;101139.25;2846206;82;21034;-86
2022/08/09 15:01:04;;;;;;;2.10;1.70;;;;;;;29.62;42.43;101130.98;2845536;82;21014;-86
2022/08/09 15:05:06;;;;;;;2.83;1.72;;;;;;;29.64;41.93;101126.95;2879507;80;21046;-84
2022/08/09 15:09:08;;;;;;;2.80;2.55;;;;;;;29.52;42.74;101130.18;2878861;81;21010;-84
2022/08/09 15:13:11;;;;;;;12.25;7.72;;;;;;;29.10;42.56;101127.33;2868365;82;21018;-85
2022/08/09 15:17:13;;;;;;;3.67;1.82;;;;;;;28.74;43.73;101125.72;2840289;82;21037;-88
2022/08/09 15:21:16;;;;;;;2.72;1.72;;;;;;;28.42;42.88;101134.03;2843025;82;21014;-85
2022/08/09 15:25:18;;;;;;;2.22;1.75;;;;;;;28.23;43.86;101131.23;2862398;81;21089;-88
2022/08/09 15:29:19;;;;;;;2.45;1.42;;;;;;;27.98;43.00;101107.95;2901371;82;20987;-88
2022/08/09 15:33:21;;;;;;;1.27;1.15;;;;;;;27.92;44.31;101125.56;2838900;81;21022;-87
2022/08/09 15:37:34;;;;;;;5.80;1.80;;;;;;;27.86;43.62;101118.25;2906122;82;21070;-87
2022/08/09 15:41:35;;;;;;;9.85;4.65;;;;;;;27.82;44.16;101123.02;2908361;82;21038;-87
2022/08/09 15:45:37;;;;;;;8.98;3.30;;;;;;;27.76;45.31;101125.58;2907321;81;21066;-88
2022/08/09 15:49:40;;;;;;;2.92;2.08;;;;;;;27.68;45.03;101121.72;2900127;80;21046;-87
2022/08/09 15:53:42;;;;;;;9.03;3.67;;;;;;;27.59;45.46;101124.42;2908320;80;21018;-87
2022/08/09 15:57:47;;;;;;;6.00;3.65;;;;;;;27.38;46.21;101116.84;2904930;81;21136;-87
2022/08/09 16:01:48;;;;;;;3.17;2.67;;;;;;;27.36;47.04;101116.22;2901662;82;21037;-85
2022/08/09 16:05:49;;;;;;;4.47;2.02;;;;;;;27.37;47.30;101114.61;2805405;82;21043;-87
2022/08/09 16:09:51;;;;;;;3.33;2.80;;;;;;;27.42;48.48;101111.78;2829175;83;21020;-85
2022/08/09 16:13:52;;;;;;;3.62;2.15;;;;;;;27.49;47.81;101116.67;2779884;85;21004;-88
2022/08/09 16:17:53;;;;;;;2.17;2.05;;;;;;;27.57;46.95;101111.51;2854200;82;21511;-88
2022/08/09 16:21:55;;;;;;;2.22;2.10;;;;;;;27.63;46.23;101109.26;2849056;81;20992;-87
2022/08/09 16:25:56;;;;;;;3.02;2.00;;;;;;;27.62;47.08;101106.22;2857834;81;21549;-85
2022/08/09 16:29:59;;;;;;;10.85;2.72;;;;;;;27.59;45.70;101106.66;2807232;82;21260;-88
2022/08/09 16:34:00;;;;;;;2.70;1.80;;;;;;;27.49;46.43;101111.20;2877598;80;21014;-91
2022/08/09 16:38:02;;;;;;;5.17;1.95;;;;;;;27.42;46.17;101114.52;2895223;80;21128;-88
2022/08/09 16:42:06;;;;;;;2.77;2.08;;;;;;;27.19;46.59;101119.95;2901677;80;21014;-88
2022/08/09 16:46:08;;;;;;;4.30;2.03;;;;;;;27.10;46.51;101117.99;2898004;80;21553;-85
2022/08/09 16:50:09;;;;;;;2.42;2.15;;;;;;;26.98;47.41;101115.09;2829369;80;21002;-87
2022/08/09 16:54:11;;;;;;;3.00;2.52;;;;;;;26.85;47.85;101120.08;2916236;80;21061;-87
2022/08/09 16:58:14;;;;;;;20.50;2.72;;;;;;;26.82;48.75;101117.75;2822632;82;21515;-88
2022/08/09 17:02:16;;;;;;;12.07;2.92;;;;;;;26.70;49.20;101116.20;2883915;80;21026;-87
2022/08/09 17:06:18;;;;;;;3.77;2.87;;;;;;;26.61;49.36;101115.59;2907597;80;20999;-89
2022/08/09 17:10:20;;;;;;;8.93;2.52;;;;;;;26.57;49.40;101121.68;2842565;80;21050;-88
2022/08/09 17:14:22;;;;;;;2.95;2.52;;;;;;;26.49;50.10;101124.10;2828810;82;21077;-89
2022/08/09 17:18:23;;;;;;;8.73;3.55;;;;;;;26.42;50.26;101119.19;2826476;82;21015;-88
2022/08/09 17:22:25;;;;;;;13.88;3.90;;;;;;;26.40;50.09;101125.38;2878984;80;21003;-89
2022/08/09 17:26:27;;;;;;;7.70;2.40;;;;;;;26.34;49.96;101132.52;2882851;82;21065;-89
2022/08/09 17:30:29;;;;;;;6.47;2.58;;;;;;;26.26;50.13;101131.38;2886187;80;21117;-91
2022/08/09 17:34:30;;;;;;;7.28;2.67;;;;;;;26.22;50.39;101133.67;2831014;81;21061;-90
2022/08/09 17:38:32;;;;;;;7.67;2.92;;;;;;;26.15;50.76;101133.63;2862917;82;21067;-90
2022/08/09 17:42:33;;;;;;;20.30;5.25;;;;;;;26.06;50.77;101126.72;2843150;80;21588;-90
2022/08/09 17:46:35;;;;;;;36.88;7.83;;;;;;;25.96;52.48;101131.22;2863161;82;20966;-91
2022/08/09 17:50:36;;;;;;;116.57;23.12;;;;;;;25.84;52.14;101130.97;2860675;81;20984;-90
2022/08/09 17:54:38;;;;;;;145.32;31.20;;;;;;;25.71;53.35;101129.06;2842178;82;21022;-88
2022/08/09 17:58:41;;;;;;;143.52;28.32;;;;;;;25.56;53.82;101131.15;2855532;82;21021;-90
2022/08/09 18:02:44;;;;;;;92.15;18.32;;;;;;;25.40;54.15;101134.52;2887060;80;21047;-90
2022/08/09 18:06:46;;;;;;;53.98;12.53;;;;;;;25.24;54.99;101136.55;2880541;81;20998;-92
2022/08/09 18:10:47;;;;;;;80.50;15.95;;;;;;;25.07;55.42;101139.28;2865129;82;21095;-91
2022/08/09 18:14:51;;;;;;;89.47;14.55;;;;;;;24.90;56.27;101136.89;2875694;81;21023;-89
2022/08/09 18:18:52;;;;;;;62.17;13.18;;;;;;;24.71;56.55;101132.98;2860505;81;20994;-86
2022/08/09 18:22:53;;;;;;;31.80;9.03;;;;;;;24.58;57.65;101141.05;2881851;81;21023;-91
2022/08/09 18:26:55;;;;;;;34.88;7.92;;;;;;;24.38;58.00;101144.46;2860955;82;20987;-91
2022/08/09 18:30:58;;;;;;;51.40;13.18;;;;;;;24.23;58.02;101149.98;2854755;82;20968;-89
2022/08/09 18:35:37;;;;;;;194.50;57.00;;;;;;;24.07;58.28;101146.50;2856345;80;71556;-69
2022/08/09 18:39:44;;;;;;;176.65;76.02;;;;;;;23.90;58.39;101150.47;2824676;83;20972;-60
2022/08/09 18:43:42;;;;;;;122.72;53.55;;;;;;;23.68;58.77;101155.89;2794900;84;20961;-61
2022/08/09 18:47:44;;;;;;;102.87;41.73;;;;;;;23.45;59.12;101158.24;2824934;84;20937;-60
2022/08/09 18:51:46;;;;;;;118.28;34.80;;;;;;;23.29;59.53;101165.23;2824571;84;20956;-62